sensor_id;sensor_type;location;lat;lon;timestamp;temperature;humidity
11772;DHT22;12556;55.748;13.194;2023-04-16T00:01:07;9.10;99.90
11772;DHT22;12556;55.748;13.194;2023-04-16T00:03:34;9.00;99.90
11772;DHT22;12556;55.748;13.194;2023-04-16T00:06:01;9.00;99.90
11772;DHT22;12556;55.748;13.194;2023-04-16T00:08:28;9.00;99.90
11772;DHT22;12556;55.748;13.194;2023-04-16T00:10:54;9.00;99.90
11772;DHT22;12556;55.748;13.194;2023-04-16T00:13:21;9.00;99.90
11772;DHT22;12556;55.748;13.194;2023-04-16T00:15:50;9.00;99.90
11772;DHT22;12556;55.748;13.194;2023-04-16T00:18:17;9.00;99.90
11772;DHT22;12556;55.748;13.194;2023-04-16T00:20:46;9.00;99.90
11772;DHT22;12556;55.748;13.194;2023-04-16T00:23:13;8.90;99.90
11772;DHT22;12556;55.748;13.194;2023-04-16T00:25:40;8.90;99.90
11772;DHT22;12556;55.748;13.194;2023-04-16T00:28:07;8.90;99.90
11772;DHT22;12556;55.748;13.194;2023-04-16T00:30:34;8.90;99.90
11772;DHT22;12556;55.748;13.194;2023-04-16T00:33:02;8.80;99.90
11772;DHT22;12556;55.748;13.194;2023-04-16T00:35:30;8.80;99.90
11772;DHT22;12556;55.748;13.194;2023-04-16T00:37:57;8.80;99.90
11772;DHT22;12556;55.748;13.194;2023-04-16T00:40:26;8.80;99.90
11772;DHT22;12556;55.748;13.194;2023-04-16T00:42:53;8.80;99.90
11772;DHT22;12556;55.748;13.194;2023-04-16T00:45:20;8.80;99.90
11772;DHT22;12556;55.748;13.194;2023-04-16T00:47:47;8.70;99.90
11772;DHT22;12556;55.748;13.194;2023-04-16T00:50:15;8.80;99.90
11772;DHT22;12556;55.748;13.194;2023-04-16T00:52:42;8.80;99.90
11772;DHT22;12556;55.748;13.194;2023-04-16T00:55:11;8.70;99.90
11772;DHT22;12556;55.748;13.194;2023-04-16T00:57:39;8.70;99.90
11772;DHT22;12556;55.748;13.194;2023-04-16T01:00:07;8.70;99.90
11772;DHT22;12556;55.748;13.194;2023-04-16T01:02:34;8.70;99.90
11772;DHT22;12556;55.748;13.194;2023-04-16T01:05:01;8.80;99.90
11772;DHT22;12556;55.748;13.194;2023-04-16T01:07:30;8.80;99.90
11772;DHT22;12556;55.748;13.194;2023-04-16T01:09:57;8.80;99.90
11772;DHT22;12556;55.748;13.194;2023-04-16T01:12:23;8.80;99.90
11772;DHT22;12556;55.748;13.194;2023-04-16T01:14:50;8.80;99.90
11772;DHT22;12556;55.748;13.194;2023-04-16T01:17:17;8.80;99.90
11772;DHT22;12556;55.748;13.194;2023-04-16T01:19:44;8.80;99.90
11772;DHT22;12556;55.748;13.194;2023-04-16T01:22:12;8.80;99.90
11772;DHT22;12556;55.748;13.194;2023-04-16T01:24:39;8.80;99.90
11772;DHT22;12556;55.748;13.194;2023-04-16T01:27:06;8.80;99.90
11772;DHT22;12556;55.748;13.194;2023-04-16T01:29:33;8.70;99.90
11772;DHT22;12556;55.748;13.194;2023-04-16T01:32:00;8.80;99.90
11772;DHT22;12556;55.748;13.194;2023-04-16T01:34:27;8.70;99.90
11772;DHT22;12556;55.748;13.194;2023-04-16T01:36:54;8.70;99.90
11772;DHT22;12556;55.748;13.194;2023-04-16T01:39:22;8.80;99.90
11772;DHT22;12556;55.748;13.194;2023-04-16T01:41:49;8.70;99.90
11772;DHT22;12556;55.748;13.194;2023-04-16T01:44:16;8.70;99.90
11772;DHT22;12556;55.748;13.194;2023-04-16T01:46:43;8.70;99.90
11772;DHT22;12556;55.748;13.194;2023-04-16T01:49:10;8.20;99.90
11772;DHT22;12556;55.748;13.194;2023-04-16T01:51:37;8.70;99.90
11772;DHT22;12556;55.748;13.194;2023-04-16T01:54:05;8.80;99.90
11772;DHT22;12556;55.748;13.194;2023-04-16T01:56:33;8.80;99.90
11772;DHT22;12556;55.748;13.194;2023-04-16T01:59:00;8.80;99.90
11772;DHT22;12556;55.748;13.194;2023-04-16T02:01:27;8.80;99.90
11772;DHT22;12556;55.748;13.194;2023-04-16T02:03:54;8.80;99.90
11772;DHT22;12556;55.748;13.194;2023-04-16T02:06:22;8.80;99.90
11772;DHT22;12556;55.748;13.194;2023-04-16T02:08:49;8.80;99.90
11772;DHT22;12556;55.748;13.194;2023-04-16T02:11:16;8.80;99.90
11772;DHT22;12556;55.748;13.194;2023-04-16T02:13:44;8.80;99.90
11772;DHT22;12556;55.748;13.194;2023-04-16T02:16:11;8.70;99.90
11772;DHT22;12556;55.748;13.194;2023-04-16T02:18:37;8.80;99.90
11772;DHT22;12556;55.748;13.194;2023-04-16T02:21:05;8.80;99.90
11772;DHT22;12556;55.748;13.194;2023-04-16T02:23:32;8.80;99.90
11772;DHT22;12556;55.748;13.194;2023-04-16T02:25:59;8.70;99.90
11772;DHT22;12556;55.748;13.194;2023-04-16T02:28:26;8.70;99.90
11772;DHT22;12556;55.748;13.194;2023-04-16T02:30:54;8.70;99.90
11772;DHT22;12556;55.748;13.194;2023-04-16T02:33:21;8.70;99.90
11772;DHT22;12556;55.748;13.194;2023-04-16T02:35:50;8.70;99.90
11772;DHT22;12556;55.748;13.194;2023-04-16T02:38:17;8.70;99.90
11772;DHT22;12556;55.748;13.194;2023-04-16T02:40:44;8.70;99.90
11772;DHT22;12556;55.748;13.194;2023-04-16T02:43:11;8.60;99.90
11772;DHT22;12556;55.748;13.194;2023-04-16T02:45:38;8.60;99.90
11772;DHT22;12556;55.748;13.194;2023-04-16T02:48:06;8.50;99.90
11772;DHT22;12556;55.748;13.194;2023-04-16T02:50:34;8.50;99.90
11772;DHT22;12556;55.748;13.194;2023-04-16T02:53:01;8.50;99.90
11772;DHT22;12556;55.748;13.194;2023-04-16T02:55:28;8.50;99.90
11772;DHT22;12556;55.748;13.194;2023-04-16T02:57:55;8.40;99.90
11772;DHT22;12556;55.748;13.194;2023-04-16T03:00:22;8.40;99.90
11772;DHT22;12556;55.748;13.194;2023-04-16T03:02:49;8.30;99.90
11772;DHT22;12556;55.748;13.194;2023-04-16T03:05:17;8.30;99.90
11772;DHT22;12556;55.748;13.194;2023-04-16T03:07:44;8.30;99.90
11772;DHT22;12556;55.748;13.194;2023-04-16T03:10:11;8.20;99.90
11772;DHT22;12556;55.748;13.194;2023-04-16T03:12:38;8.20;99.90
11772;DHT22;12556;55.748;13.194;2023-04-16T03:15:06;8.10;99.90
11772;DHT22;12556;55.748;13.194;2023-04-16T03:17:33;8.10;99.90
11772;DHT22;12556;55.748;13.194;2023-04-16T03:20:00;8.10;99.90
11772;DHT22;12556;55.748;13.194;2023-04-16T03:22:28;8.10;99.90
11772;DHT22;12556;55.748;13.194;2023-04-16T03:24:55;8.00;99.90
11772;DHT22;12556;55.748;13.194;2023-04-16T03:27:22;8.00;99.90
11772;DHT22;12556;55.748;13.194;2023-04-16T03:29:49;8.00;99.90
11772;DHT22;12556;55.748;13.194;2023-04-16T03:32:16;8.00;99.90
11772;DHT22;12556;55.748;13.194;2023-04-16T03:34:43;7.90;99.90
11772;DHT22;12556;55.748;13.194;2023-04-16T03:37:10;7.90;99.90
11772;DHT22;12556;55.748;13.194;2023-04-16T03:39:38;7.90;99.90
11772;DHT22;12556;55.748;13.194;2023-04-16T03:42:05;7.90;99.90
11772;DHT22;12556;55.748;13.194;2023-04-16T03:44:32;7.90;99.90
11772;DHT22;12556;55.748;13.194;2023-04-16T03:46:59;7.90;99.90
11772;DHT22;12556;55.748;13.194;2023-04-16T03:49:26;7.90;99.90
11772;DHT22;12556;55.748;13.194;2023-04-16T03:51:53;7.90;99.90
11772;DHT22;12556;55.748;13.194;2023-04-16T03:54:20;7.90;99.90
11772;DHT22;12556;55.748;13.194;2023-04-16T03:56:48;7.90;99.90
11772;DHT22;12556;55.748;13.194;2023-04-16T03:59:16;7.90;99.90
11772;DHT22;12556;55.748;13.194;2023-04-16T04:01:43;7.90;99.90
11772;DHT22;12556;55.748;13.194;2023-04-16T04:04:10;7.90;99.90
11772;DHT22;12556;55.748;13.194;2023-04-16T04:06:37;8.00;99.90
11772;DHT22;12556;55.748;13.194;2023-04-16T04:09:04;7.90;99.90
11772;DHT22;12556;55.748;13.194;2023-04-16T04:11:31;8.00;99.90
11772;DHT22;12556;55.748;13.194;2023-04-16T04:13:59;8.00;99.90
11772;DHT22;12556;55.748;13.194;2023-04-16T04:16:26;8.00;99.90
11772;DHT22;12556;55.748;13.194;2023-04-16T04:18:53;8.00;99.90
11772;DHT22;12556;55.748;13.194;2023-04-16T04:21:20;8.00;99.90
11772;DHT22;12556;55.748;13.194;2023-04-16T04:23:46;8.00;99.90
11772;DHT22;12556;55.748;13.194;2023-04-16T04:26:13;8.10;99.90
11772;DHT22;12556;55.748;13.194;2023-04-16T04:28:40;8.10;99.90
11772;DHT22;12556;55.748;13.194;2023-04-16T04:31:09;8.10;99.90
11772;DHT22;12556;55.748;13.194;2023-04-16T04:33:36;8.10;99.90
11772;DHT22;12556;55.748;13.194;2023-04-16T04:36:03;8.10;99.90
11772;DHT22;12556;55.748;13.194;2023-04-16T04:38:30;8.00;99.90
11772;DHT22;12556;55.748;13.194;2023-04-16T04:40:58;8.10;99.90
11772;DHT22;12556;55.748;13.194;2023-04-16T04:43:25;8.10;99.90
11772;DHT22;12556;55.748;13.194;2023-04-16T04:45:52;8.10;99.90
11772;DHT22;12556;55.748;13.194;2023-04-16T04:48:21;8.10;99.90
11772;DHT22;12556;55.748;13.194;2023-04-16T04:50:51;8.10;99.90
11772;DHT22;12556;55.748;13.194;2023-04-16T04:53:18;8.10;99.90
11772;DHT22;12556;55.748;13.194;2023-04-16T04:55:45;8.00;99.90
11772;DHT22;12556;55.748;13.194;2023-04-16T04:58:12;8.00;99.90
11772;DHT22;12556;55.748;13.194;2023-04-16T05:00:38;8.00;99.90
11772;DHT22;12556;55.748;13.194;2023-04-16T05:03:09;8.00;99.90
11772;DHT22;12556;55.748;13.194;2023-04-16T05:05:38;8.10;99.90
11772;DHT22;12556;55.748;13.194;2023-04-16T05:08:06;8.10;99.90
11772;DHT22;12556;55.748;13.194;2023-04-16T05:10:32;8.10;99.90
11772;DHT22;12556;55.748;13.194;2023-04-16T05:12:59;8.10;99.90
11772;DHT22;12556;55.748;13.194;2023-04-16T05:15:26;8.20;99.90
11772;DHT22;12556;55.748;13.194;2023-04-16T05:17:53;8.20;99.90
11772;DHT22;12556;55.748;13.194;2023-04-16T05:20:21;8.20;99.90
11772;DHT22;12556;55.748;13.194;2023-04-16T05:22:49;8.10;99.90
11772;DHT22;12556;55.748;13.194;2023-04-16T05:25:17;8.10;99.90
11772;DHT22;12556;55.748;13.194;2023-04-16T05:27:43;8.10;99.90
11772;DHT22;12556;55.748;13.194;2023-04-16T05:30:11;8.10;99.90
11772;DHT22;12556;55.748;13.194;2023-04-16T05:32:38;8.20;99.90
11772;DHT22;12556;55.748;13.194;2023-04-16T05:35:05;8.20;99.90
11772;DHT22;12556;55.748;13.194;2023-04-16T05:37:32;8.20;99.90
11772;DHT22;12556;55.748;13.194;2023-04-16T05:40:00;8.20;99.90
11772;DHT22;12556;55.748;13.194;2023-04-16T05:42:27;8.20;99.90
11772;DHT22;12556;55.748;13.194;2023-04-16T05:44:54;8.30;99.90
11772;DHT22;12556;55.748;13.194;2023-04-16T05:47:21;8.30;99.90
11772;DHT22;12556;55.748;13.194;2023-04-16T05:49:48;8.30;99.90
11772;DHT22;12556;55.748;13.194;2023-04-16T05:52:15;8.30;99.90
11772;DHT22;12556;55.748;13.194;2023-04-16T05:54:42;8.30;99.90
11772;DHT22;12556;55.748;13.194;2023-04-16T05:57:10;8.30;99.90
11772;DHT22;12556;55.748;13.194;2023-04-16T05:59:37;8.30;99.90
11772;DHT22;12556;55.748;13.194;2023-04-16T06:02:04;8.40;99.90
11772;DHT22;12556;55.748;13.194;2023-04-16T06:04:31;8.30;99.90
11772;DHT22;12556;55.748;13.194;2023-04-16T06:06:57;8.30;99.90
11772;DHT22;12556;55.748;13.194;2023-04-16T06:09:24;8.30;99.90
11772;DHT22;12556;55.748;13.194;2023-04-16T06:11:51;8.30;99.90
11772;DHT22;12556;55.748;13.194;2023-04-16T06:14:19;8.30;99.90
11772;DHT22;12556;55.748;13.194;2023-04-16T06:16:46;8.30;99.90
11772;DHT22;12556;55.748;13.194;2023-04-16T06:19:13;8.30;99.90
11772;DHT22;12556;55.748;13.194;2023-04-16T06:21:40;8.30;99.90
11772;DHT22;12556;55.748;13.194;2023-04-16T06:24:07;8.30;99.90
11772;DHT22;12556;55.748;13.194;2023-04-16T06:26:34;8.30;99.90
11772;DHT22;12556;55.748;13.194;2023-04-16T06:29:01;8.40;99.90
11772;DHT22;12556;55.748;13.194;2023-04-16T06:31:29;8.40;99.90
11772;DHT22;12556;55.748;13.194;2023-04-16T06:33:56;8.40;99.90
11772;DHT22;12556;55.748;13.194;2023-04-16T06:36:23;8.40;99.90
11772;DHT22;12556;55.748;13.194;2023-04-16T06:38:52;8.40;99.90
11772;DHT22;12556;55.748;13.194;2023-04-16T06:41:19;8.40;99.90
11772;DHT22;12556;55.748;13.194;2023-04-16T06:43:47;8.40;99.90
11772;DHT22;12556;55.748;13.194;2023-04-16T06:46:14;8.40;99.90
11772;DHT22;12556;55.748;13.194;2023-04-16T06:48:42;8.40;99.90
11772;DHT22;12556;55.748;13.194;2023-04-16T06:51:09;8.40;99.90
11772;DHT22;12556;55.748;13.194;2023-04-16T06:53:36;8.40;99.90
11772;DHT22;12556;55.748;13.194;2023-04-16T06:56:03;8.40;99.90
11772;DHT22;12556;55.748;13.194;2023-04-16T06:58:30;8.40;99.90
11772;DHT22;12556;55.748;13.194;2023-04-16T07:00:58;8.40;99.90
11772;DHT22;12556;55.748;13.194;2023-04-16T07:03:24;8.40;99.90
11772;DHT22;12556;55.748;13.194;2023-04-16T07:05:53;8.40;99.90
11772;DHT22;12556;55.748;13.194;2023-04-16T07:08:20;8.40;99.90
11772;DHT22;12556;55.748;13.194;2023-04-16T07:10:46;8.40;99.90
11772;DHT22;12556;55.748;13.194;2023-04-16T07:13:13;8.40;99.90
11772;DHT22;12556;55.748;13.194;2023-04-16T07:15:40;8.40;99.90
11772;DHT22;12556;55.748;13.194;2023-04-16T07:18:07;8.50;99.90
11772;DHT22;12556;55.748;13.194;2023-04-16T07:20:34;8.50;99.90
11772;DHT22;12556;55.748;13.194;2023-04-16T07:23:02;8.50;99.90
11772;DHT22;12556;55.748;13.194;2023-04-16T07:25:29;8.50;99.90
11772;DHT22;12556;55.748;13.194;2023-04-16T07:27:56;8.50;99.90
11772;DHT22;12556;55.748;13.194;2023-04-16T07:30:23;8.50;99.90
11772;DHT22;12556;55.748;13.194;2023-04-16T07:32:57;8.60;99.90
11772;DHT22;12556;55.748;13.194;2023-04-16T07:35:23;8.60;99.90
11772;DHT22;12556;55.748;13.194;2023-04-16T07:37:50;8.60;99.90
11772;DHT22;12556;55.748;13.194;2023-04-16T07:40:18;8.70;99.90
11772;DHT22;12556;55.748;13.194;2023-04-16T07:42:45;8.70;99.90
11772;DHT22;12556;55.748;13.194;2023-04-16T07:45:12;8.80;99.90
11772;DHT22;12556;55.748;13.194;2023-04-16T07:47:39;8.80;99.90
11772;DHT22;12556;55.748;13.194;2023-04-16T07:50:07;8.80;99.90
11772;DHT22;12556;55.748;13.194;2023-04-16T07:52:34;8.80;99.90
11772;DHT22;12556;55.748;13.194;2023-04-16T07:55:03;8.90;99.90
11772;DHT22;12556;55.748;13.194;2023-04-16T07:57:32;8.90;99.90
11772;DHT22;12556;55.748;13.194;2023-04-16T07:59:59;8.90;99.90
11772;DHT22;12556;55.748;13.194;2023-04-16T08:02:29;8.90;99.90
11772;DHT22;12556;55.748;13.194;2023-04-16T08:04:56;8.90;99.90
11772;DHT22;12556;55.748;13.194;2023-04-16T08:07:23;9.00;99.90
11772;DHT22;12556;55.748;13.194;2023-04-16T08:09:51;9.10;99.90
11772;DHT22;12556;55.748;13.194;2023-04-16T08:12:19;9.10;99.90
11772;DHT22;12556;55.748;13.194;2023-04-16T08:14:47;9.10;99.90
11772;DHT22;12556;55.748;13.194;2023-04-16T08:17:15;9.10;99.90
11772;DHT22;12556;55.748;13.194;2023-04-16T08:19:42;9.10;99.90
11772;DHT22;12556;55.748;13.194;2023-04-16T08:22:09;9.20;99.90
11772;DHT22;12556;55.748;13.194;2023-04-16T08:24:36;9.20;99.90
11772;DHT22;12556;55.748;13.194;2023-04-16T08:27:03;9.20;99.90
11772;DHT22;12556;55.748;13.194;2023-04-16T08:29:30;9.30;99.90
11772;DHT22;12556;55.748;13.194;2023-04-16T08:31:59;9.30;99.90
11772;DHT22;12556;55.748;13.194;2023-04-16T08:34:26;9.40;99.90
11772;DHT22;12556;55.748;13.194;2023-04-16T08:36:53;9.40;99.90
11772;DHT22;12556;55.748;13.194;2023-04-16T08:39:20;9.40;99.90
11772;DHT22;12556;55.748;13.194;2023-04-16T08:41:47;9.50;99.90
11772;DHT22;12556;55.748;13.194;2023-04-16T08:44:19;10.10;99.90
11772;DHT22;12556;55.748;13.194;2023-04-16T08:46:46;9.60;99.90
11772;DHT22;12556;55.748;13.194;2023-04-16T08:49:16;9.60;99.90
11772;DHT22;12556;55.748;13.194;2023-04-16T08:51:49;9.70;99.90
11772;DHT22;12556;55.748;13.194;2023-04-16T08:54:25;9.80;99.90
11772;DHT22;12556;55.748;13.194;2023-04-16T08:56:56;9.90;99.90
11772;DHT22;12556;55.748;13.194;2023-04-16T08:59:24;9.90;99.90
11772;DHT22;12556;55.748;13.194;2023-04-16T09:01:52;9.90;99.90
11772;DHT22;12556;55.748;13.194;2023-04-16T09:04:24;10.00;99.90
11772;DHT22;12556;55.748;13.194;2023-04-16T09:06:52;10.20;99.90
11772;DHT22;12556;55.748;13.194;2023-04-16T09:09:20;10.20;99.90
11772;DHT22;12556;55.748;13.194;2023-04-16T09:11:50;10.30;99.90
11772;DHT22;12556;55.748;13.194;2023-04-16T09:14:17;10.40;99.90
11772;DHT22;12556;55.748;13.194;2023-04-16T09:16:45;10.50;99.90
11772;DHT22;12556;55.748;13.194;2023-04-16T09:19:12;10.50;99.90
11772;DHT22;12556;55.748;13.194;2023-04-16T09:21:41;10.50;99.90
11772;DHT22;12556;55.748;13.194;2023-04-16T09:24:08;10.50;99.90
11772;DHT22;12556;55.748;13.194;2023-04-16T09:26:35;10.50;99.90
11772;DHT22;12556;55.748;13.194;2023-04-16T09:29:03;10.60;99.90
11772;DHT22;12556;55.748;13.194;2023-04-16T09:31:30;10.60;99.90
11772;DHT22;12556;55.748;13.194;2023-04-16T09:34:01;10.70;99.90
11772;DHT22;12556;55.748;13.194;2023-04-16T09:36:28;10.60;99.90
11772;DHT22;12556;55.748;13.194;2023-04-16T09:38:57;10.60;99.90
11772;DHT22;12556;55.748;13.194;2023-04-16T09:41:26;10.60;99.90
11772;DHT22;12556;55.748;13.194;2023-04-16T09:43:54;10.60;99.90
11772;DHT22;12556;55.748;13.194;2023-04-16T09:46:22;10.60;99.90
11772;DHT22;12556;55.748;13.194;2023-04-16T09:48:49;10.60;99.90
11772;DHT22;12556;55.748;13.194;2023-04-16T09:51:16;10.60;99.90
11772;DHT22;12556;55.748;13.194;2023-04-16T09:53:43;10.60;99.90
11772;DHT22;12556;55.748;13.194;2023-04-16T09:56:11;10.60;99.90
11772;DHT22;12556;55.748;13.194;2023-04-16T09:58:38;10.70;99.90
11772;DHT22;12556;55.748;13.194;2023-04-16T10:01:08;10.60;99.90
11772;DHT22;12556;55.748;13.194;2023-04-16T10:03:36;10.60;99.90
11772;DHT22;12556;55.748;13.194;2023-04-16T10:06:07;10.60;99.90
11772;DHT22;12556;55.748;13.194;2023-04-16T10:08:34;10.70;99.90
11772;DHT22;12556;55.748;13.194;2023-04-16T10:11:01;10.70;99.90
11772;DHT22;12556;55.748;13.194;2023-04-16T10:13:30;10.80;99.90
11772;DHT22;12556;55.748;13.194;2023-04-16T10:15:57;10.80;99.90
11772;DHT22;12556;55.748;13.194;2023-04-16T10:18:24;10.90;99.90
11772;DHT22;12556;55.748;13.194;2023-04-16T10:20:52;11.00;99.90
11772;DHT22;12556;55.748;13.194;2023-04-16T10:23:19;11.10;99.90
11772;DHT22;12556;55.748;13.194;2023-04-16T10:25:47;11.10;99.90
11772;DHT22;12556;55.748;13.194;2023-04-16T10:28:14;11.20;99.90
11772;DHT22;12556;55.748;13.194;2023-04-16T10:30:43;11.20;99.90
11772;DHT22;12556;55.748;13.194;2023-04-16T10:33:19;11.40;99.90
11772;DHT22;12556;55.748;13.194;2023-04-16T10:35:46;11.40;99.90
11772;DHT22;12556;55.748;13.194;2023-04-16T10:38:24;11.40;99.90
11772;DHT22;12556;55.748;13.194;2023-04-16T10:40:57;11.50;99.90
11772;DHT22;12556;55.748;13.194;2023-04-16T10:43:27;11.60;99.90
11772;DHT22;12556;55.748;13.194;2023-04-16T10:45:56;11.60;99.90
11772;DHT22;12556;55.748;13.194;2023-04-16T10:48:23;11.70;99.90
11772;DHT22;12556;55.748;13.194;2023-04-16T10:50:54;11.80;99.90
11772;DHT22;12556;55.748;13.194;2023-04-16T10:53:23;11.90;99.90
11772;DHT22;12556;55.748;13.194;2023-04-16T10:56:01;12.00;99.90
11772;DHT22;12556;55.748;13.194;2023-04-16T10:58:35;12.00;99.90
11772;DHT22;12556;55.748;13.194;2023-04-16T11:01:10;12.00;99.90
11772;DHT22;12556;55.748;13.194;2023-04-16T11:03:41;12.00;99.90
11772;DHT22;12556;55.748;13.194;2023-04-16T11:06:12;12.10;99.90
11772;DHT22;12556;55.748;13.194;2023-04-16T11:08:41;12.10;99.90
11772;DHT22;12556;55.748;13.194;2023-04-16T11:11:10;12.10;99.90
11772;DHT22;12556;55.748;13.194;2023-04-16T11:13:37;12.10;99.90
11772;DHT22;12556;55.748;13.194;2023-04-16T11:16:07;12.20;99.90
11772;DHT22;12556;55.748;13.194;2023-04-16T11:18:34;12.20;99.90
11772;DHT22;12556;55.748;13.194;2023-04-16T11:21:01;12.20;99.90
11772;DHT22;12556;55.748;13.194;2023-04-16T11:23:44;12.30;99.90
11772;DHT22;12556;55.748;13.194;2023-04-16T11:26:22;12.30;99.90
11772;DHT22;12556;55.748;13.194;2023-04-16T11:28:49;12.40;99.90
11772;DHT22;12556;55.748;13.194;2023-04-16T11:31:17;12.40;99.90
11772;DHT22;12556;55.748;13.194;2023-04-16T11:33:45;12.60;99.90
11772;DHT22;12556;55.748;13.194;2023-04-16T11:36:12;12.70;99.90
11772;DHT22;12556;55.748;13.194;2023-04-16T11:38:38;12.80;99.90
11772;DHT22;12556;55.748;13.194;2023-04-16T11:41:07;12.80;99.90
11772;DHT22;12556;55.748;13.194;2023-04-16T11:43:34;13.00;99.90
11772;DHT22;12556;55.748;13.194;2023-04-16T11:46:02;13.30;99.90
11772;DHT22;12556;55.748;13.194;2023-04-16T11:48:46;13.50;99.90
11772;DHT22;12556;55.748;13.194;2023-04-16T11:51:13;13.60;99.90
11772;DHT22;12556;55.748;13.194;2023-04-16T11:53:45;13.70;99.90
11772;DHT22;12556;55.748;13.194;2023-04-16T11:56:13;13.80;99.90
11772;DHT22;12556;55.748;13.194;2023-04-16T11:58:42;14.00;99.90
11772;DHT22;12556;55.748;13.194;2023-04-16T12:01:09;14.10;99.90
11772;DHT22;12556;55.748;13.194;2023-04-16T12:03:37;14.20;99.90
11772;DHT22;12556;55.748;13.194;2023-04-16T12:06:08;14.20;99.90
11772;DHT22;12556;55.748;13.194;2023-04-16T12:08:35;14.40;99.90
11772;DHT22;12556;55.748;13.194;2023-04-16T12:11:02;14.60;99.90
11772;DHT22;12556;55.748;13.194;2023-04-16T12:13:29;14.70;99.90
11772;DHT22;12556;55.748;13.194;2023-04-16T12:15:56;14.90;99.90
11772;DHT22;12556;55.748;13.194;2023-04-16T12:18:24;15.00;99.90
11772;DHT22;12556;55.748;13.194;2023-04-16T12:20:51;15.30;99.90
11772;DHT22;12556;55.748;13.194;2023-04-16T12:23:24;15.50;99.90
11772;DHT22;12556;55.748;13.194;2023-04-16T12:25:51;15.60;99.90
11772;DHT22;12556;55.748;13.194;2023-04-16T12:28:31;15.50;99.80
11772;DHT22;12556;55.748;13.194;2023-04-16T12:30:58;15.40;99.70
11772;DHT22;12556;55.748;13.194;2023-04-16T12:33:26;15.40;99.70
11772;DHT22;12556;55.748;13.194;2023-04-16T12:35:53;15.40;99.70
11772;DHT22;12556;55.748;13.194;2023-04-16T12:38:19;15.40;99.60
11772;DHT22;12556;55.748;13.194;2023-04-16T12:40:48;15.50;99.70
11772;DHT22;12556;55.748;13.194;2023-04-16T12:43:15;15.60;99.50
11772;DHT22;12556;55.748;13.194;2023-04-16T12:45:42;15.70;99.20
11772;DHT22;12556;55.748;13.194;2023-04-16T12:48:09;15.70;99.00
11772;DHT22;12556;55.748;13.194;2023-04-16T12:50:36;15.50;98.90
11772;DHT22;12556;55.748;13.194;2023-04-16T12:53:04;15.60;99.10
11772;DHT22;12556;55.748;13.194;2023-04-16T12:55:30;15.80;99.10
11772;DHT22;12556;55.748;13.194;2023-04-16T12:57:59;15.80;98.60
11772;DHT22;12556;55.748;13.194;2023-04-16T13:00:26;15.80;98.60
11772;DHT22;12556;55.748;13.194;2023-04-16T13:02:52;15.70;98.70
11772;DHT22;12556;55.748;13.194;2023-04-16T13:05:19;15.70;98.80
11772;DHT22;12556;55.748;13.194;2023-04-16T13:07:46;15.80;98.70
11772;DHT22;12556;55.748;13.194;2023-04-16T13:10:13;15.80;98.40
11772;DHT22;12556;55.748;13.194;2023-04-16T13:12:41;15.70;98.30
11772;DHT22;12556;55.748;13.194;2023-04-16T13:15:10;15.80;98.40
11772;DHT22;12556;55.748;13.194;2023-04-16T13:17:37;15.80;98.00
11772;DHT22;12556;55.748;13.194;2023-04-16T13:20:04;15.80;97.90
11772;DHT22;12556;55.748;13.194;2023-04-16T13:22:31;15.80;97.80
11772;DHT22;12556;55.748;13.194;2023-04-16T13:24:58;15.80;97.70
11772;DHT22;12556;55.748;13.194;2023-04-16T13:27:25;15.80;97.40
11772;DHT22;12556;55.748;13.194;2023-04-16T13:29:52;15.90;97.40
11772;DHT22;12556;55.748;13.194;2023-04-16T13:32:20;16.00;97.20
11772;DHT22;12556;55.748;13.194;2023-04-16T13:34:47;16.20;97.20
11772;DHT22;12556;55.748;13.194;2023-04-16T13:37:15;16.30;96.90
11772;DHT22;12556;55.748;13.194;2023-04-16T13:39:41;16.30;96.80
11772;DHT22;12556;55.748;13.194;2023-04-16T13:42:09;16.50;96.80
11772;DHT22;12556;55.748;13.194;2023-04-16T13:44:36;16.70;96.50
11772;DHT22;12556;55.748;13.194;2023-04-16T13:47:03;16.70;96.50
11772;DHT22;12556;55.748;13.194;2023-04-16T13:49:31;16.80;96.20
11772;DHT22;12556;55.748;13.194;2023-04-16T13:51:59;16.90;95.70
11772;DHT22;12556;55.748;13.194;2023-04-16T13:54:26;16.90;95.80
11772;DHT22;12556;55.748;13.194;2023-04-16T13:56:53;17.10;95.60
11772;DHT22;12556;55.748;13.194;2023-04-16T13:59:20;17.30;95.70
11772;DHT22;12556;55.748;13.194;2023-04-16T14:01:47;17.50;95.40
11772;DHT22;12556;55.748;13.194;2023-04-16T14:04:14;17.60;95.20
11772;DHT22;12556;55.748;13.194;2023-04-16T14:06:42;17.60;94.70
11772;DHT22;12556;55.748;13.194;2023-04-16T14:09:09;17.60;94.50
11772;DHT22;12556;55.748;13.194;2023-04-16T14:11:36;17.70;94.50
11772;DHT22;12556;55.748;13.194;2023-04-16T14:14:03;17.70;94.40
11772;DHT22;12556;55.748;13.194;2023-04-16T14:16:30;17.90;94.00
11772;DHT22;12556;55.748;13.194;2023-04-16T14:18:57;17.80;93.90
11772;DHT22;12556;55.748;13.194;2023-04-16T14:21:24;17.80;93.80
11772;DHT22;12556;55.748;13.194;2023-04-16T14:23:52;17.80;93.80
11772;DHT22;12556;55.748;13.194;2023-04-16T14:26:19;17.80;93.60
11772;DHT22;12556;55.748;13.194;2023-04-16T14:28:46;17.80;93.10
11772;DHT22;12556;55.748;13.194;2023-04-16T14:31:13;17.80;93.10
11772;DHT22;12556;55.748;13.194;2023-04-16T14:33:41;17.80;93.20
11772;DHT22;12556;55.748;13.194;2023-04-16T14:36:08;17.70;93.50
11772;DHT22;12556;55.748;13.194;2023-04-16T14:38:36;17.70;93.00
11772;DHT22;12556;55.748;13.194;2023-04-16T14:41:04;17.60;93.10
11772;DHT22;12556;55.748;13.194;2023-04-16T14:43:31;17.60;93.60
11772;DHT22;12556;55.748;13.194;2023-04-16T14:45:58;17.60;93.20
11772;DHT22;12556;55.748;13.194;2023-04-16T14:48:24;17.60;93.30
11772;DHT22;12556;55.748;13.194;2023-04-16T14:50:52;17.60;93.30
11772;DHT22;12556;55.748;13.194;2023-04-16T14:53:19;17.50;93.10
11772;DHT22;12556;55.748;13.194;2023-04-16T14:55:46;17.40;93.00
11772;DHT22;12556;55.748;13.194;2023-04-16T14:58:14;17.50;93.10
11772;DHT22;12556;55.748;13.194;2023-04-16T15:00:41;17.50;93.00
11772;DHT22;12556;55.748;13.194;2023-04-16T15:03:08;17.40;93.00
11772;DHT22;12556;55.748;13.194;2023-04-16T15:05:35;17.40;93.00
11772;DHT22;12556;55.748;13.194;2023-04-16T15:08:03;17.40;92.90
11772;DHT22;12556;55.748;13.194;2023-04-16T15:10:30;17.40;93.00
11772;DHT22;12556;55.748;13.194;2023-04-16T15:12:57;17.40;93.00
11772;DHT22;12556;55.748;13.194;2023-04-16T15:15:25;17.20;93.20
11772;DHT22;12556;55.748;13.194;2023-04-16T15:17:52;17.00;93.30
11772;DHT22;12556;55.748;13.194;2023-04-16T15:20:21;16.70;93.30
11772;DHT22;12556;55.748;13.194;2023-04-16T15:22:48;16.60;93.60
11772;DHT22;12556;55.748;13.194;2023-04-16T15:25:15;16.50;93.70
11772;DHT22;12556;55.748;13.194;2023-04-16T15:27:42;16.40;93.80